Time;durP1;ratioP1;P1;durP2;ratioP2;P2;SDS_P1;SDS_P2;PMS_P1;PMS_P2;Temp;Humidity;BMP_temperature;BMP_pressure;BME280_temperature;BME280_humidity;BME280_pressure;Samples;Min_cycle;Max_cycle;Signal;HPM_P1;HPM_P2
2022/11/12 00:00:29;;;;;;;67.33;15.33;;;5.10;99.90;;;;;;5081240;28;20178;-80
2022/11/12 00:02:56;;;;;;;60.93;14.77;;;5.20;99.90;;;;;;5082491;28;20209;-79
2022/11/12 00:05:21;;;;;;;50.30;14.53;;;5.20;99.90;;;;;;5074429;28;20173;-79
2022/11/12 00:07:47;;;;;;;43.07;15.80;;;5.20;99.90;;;;;;5076787;28;20678;-79
2022/11/12 00:10:13;;;;;;;55.23;16.40;;;5.30;99.90;;;;;;5080509;28;20185;-78
2022/11/12 00:12:39;;;;;;;44.37;13.17;;;5.30;99.90;;;;;;5093089;28;20834;-78
2022/11/12 00:15:05;;;;;;;33.43;13.93;;;5.30;99.90;;;;;;5092839;28;20188;-80
2022/11/12 00:17:31;;;;;;;62.67;13.17;;;5.20;99.90;;;;;;5075415;28;20693;-80
2022/11/12 00:19:57;;;;;;;52.07;14.93;;;5.20;99.90;;;;;;5075367;28;20185;-79
2022/11/12 00:22:23;;;;;;;52.57;13.97;;;5.30;99.90;;;;;;5074896;28;20185;-79
2022/11/12 00:24:49;;;;;;;36.00;14.43;;;5.30;99.90;;;;;;5077291;28;20234;-77
2022/11/12 00:27:15;;;;;;;21.67;13.53;;;5.30;99.90;;;;;;5070938;28;20217;-79
2022/11/12 00:29:40;;;;;;;40.23;13.53;;;5.40;99.90;;;;;;5093182;28;20177;-76
2022/11/12 00:32:07;;;;;;;38.20;12.43;;;5.40;99.90;;;;;;5078168;28;20277;-79
2022/11/12 00:34:34;;;;;;;20.00;11.93;;;5.40;99.90;;;;;;5085774;28;20181;-77
2022/11/12 00:37:00;;;;;;;36.97;12.63;;;5.30;99.90;;;;;;5077334;28;20646;-77
2022/11/12 00:39:27;;;;;;;50.03;16.13;;;5.30;99.90;;;;;;5074191;28;20193;-77
2022/11/12 00:41:53;;;;;;;31.43;12.27;;;5.30;99.90;;;;;;5076861;28;20189;-77
2022/11/12 00:44:19;;;;;;;37.73;12.37;;;5.20;99.90;;;;;;5071826;28;20173;-77
2022/11/12 00:46:45;;;;;;;30.90;11.47;;;5.20;99.90;;;;;;5071031;28;20204;-77
2022/11/12 00:49:11;;;;;;;25.07;12.07;;;5.20;99.90;;;;;;5071477;28;20194;-79
2022/11/12 00:51:37;;;;;;;49.70;12.97;;;5.20;99.90;;;;;;5074573;28;20225;-77
2022/11/12 00:54:04;;;;;;;44.90;13.83;;;5.20;99.90;;;;;;5072287;28;20216;-77
2022/11/12 00:56:30;;;;;;;27.27;14.57;;;5.20;99.90;;;;;;5074661;28;20207;-76
2022/11/12 00:58:57;;;;;;;39.37;15.73;;;5.20;99.90;;;;;;5071618;28;20290;-77
2022/11/12 01:01:23;;;;;;;40.80;14.30;;;5.10;99.90;;;;;;5071432;28;20246;-76
2022/11/12 01:03:49;;;;;;;40.83;14.33;;;5.10;99.90;;;;;;5071949;28;20231;-77
2022/11/12 01:06:18;;;;;;;42.27;16.43;;;5.10;99.90;;;;;;5071644;28;20582;-77
2022/11/12 01:08:44;;;;;;;34.47;16.63;;;5.10;99.90;;;;;;5071063;28;20204;-77
2022/11/12 01:11:14;;;;;;;78.17;15.50;;;5.10;99.90;;;;;;5073900;28;20494;-77
2022/11/12 01:13:42;;;;;;;80.23;16.17;;;5.10;99.90;;;;;;5070630;28;20181;-77
2022/11/12 01:16:11;;;;;;;68.47;15.17;;;4.90;99.90;;;;;;5071985;28;20265;-76
2022/11/12 01:18:37;;;;;;;46.27;16.27;;;4.80;99.90;;;;;;5071676;28;20616;-77
2022/11/12 01:21:05;;;;;;;21.17;12.63;;;4.80;99.90;;;;;;5071835;28;20182;-77
2022/11/12 01:23:36;;;;;;;32.73;15.57;;;4.70;99.90;;;;;;5071689;28;20681;-77
2022/11/12 01:26:12;;;;;;;68.77;16.60;;;4.60;99.90;;;;;;5071642;28;20699;-76
2022/11/12 01:28:39;;;;;;;48.60;18.17;;;4.50;99.90;;;;;;5069692;28;20219;-77
2022/11/12 01:31:19;;;;;;;84.33;16.83;;;4.60;99.90;;;;;;5070649;28;20178;-77
2022/11/12 01:33:49;;;;;;;137.47;18.87;;;4.60;99.90;;;;;;5070885;28;20178;-77
2022/11/12 01:36:17;;;;;;;129.80;21.13;;;4.60;99.90;;;;;;5070713;28;20315;-77
2022/11/12 01:38:44;;;;;;;117.07;20.83;;;4.50;99.90;;;;;;5073064;28;20240;-77
2022/11/12 01:41:15;;;;;;;123.57;20.67;;;4.50;99.90;;;;;;5073215;28;20553;-77
2022/11/12 01:43:41;;;;;;;74.27;18.03;;;4.50;99.90;;;;;;5072423;28;20261;-77
2022/11/12 01:46:28;;;;;;;96.60;19.77;;;4.60;99.90;;;;;;5080775;28;20184;-76
2022/11/12 01:48:58;;;;;;;154.03;21.13;;;4.60;99.90;;;;;;5084018;28;20204;-77
2022/11/12 01:51:30;;;;;;;81.83;15.23;;;4.60;99.90;;;;;;5074367;28;20192;-78
2022/11/12 01:53:59;;;;;;;90.27;15.40;;;4.50;99.90;;;;;;5073183;28;20202;-77
2022/11/12 01:56:29;;;;;;;95.23;17.70;;;4.60;99.90;;;;;;5070829;28;20235;-77
2022/11/12 01:59:01;;;;;;;61.50;13.63;;;4.60;99.90;;;;;;5079221;28;20502;-77
2022/11/12 02:01:27;;;;;;;88.80;15.93;;;4.60;99.90;;;;;;5071877;28;20268;-77
2022/11/12 02:03:53;;;;;;;64.07;14.47;;;4.60;99.90;;;;;;5072019;28;20231;-77
2022/11/12 02:06:19;;;;;;;58.43;13.23;;;4.50;99.90;;;;;;5072730;28;20185;-77
2022/11/12 02:08:46;;;;;;;37.97;12.80;;;4.60;99.90;;;;;;5071550;28;20296;-77
2022/11/12 02:11:14;;;;;;;44.57;15.10;;;4.60;99.90;;;;;;5074883;28;20187;-77
2022/11/12 02:14:02;;;;;;;49.67;13.27;;;4.50;99.90;;;;;;5077362;28;20181;-77
2022/11/12 02:16:31;;;;;;;40.83;15.23;;;4.50;99.90;;;;;;5077991;28;20319;-76
2022/11/12 02:18:57;;;;;;;48.97;14.93;;;4.50;99.90;;;;;;5080681;28;20212;-77
2022/11/12 02:21:24;;;;;;;60.57;16.30;;;4.50;99.90;;;;;;5078952;28;20634;-77
2022/11/12 02:23:57;;;;;;;53.63;14.60;;;4.60;99.90;;;;;;5078622;28;20188;-77
2022/11/12 02:26:23;;;;;;;34.47;16.33;;;4.60;99.90;;;;;;5080715;28;20184;-77
2022/11/12 02:28:48;;;;;;;32.60;17.47;;;4.60;99.90;;;;;;5078992;28;20204;-77
2022/11/12 02:31:14;;;;;;;43.30;17.17;;;4.60;99.90;;;;;;5079081;28;20230;-77
2022/11/12 02:33:40;;;;;;;43.63;17.30;;;4.50;99.90;;;;;;5077754;28;20177;-77
2022/11/12 02:36:06;;;;;;;48.40;11.43;;;4.40;99.90;;;;;;5077288;28;20727;-77
2022/11/12 02:38:32;;;;;;;75.37;17.93;;;4.30;99.90;;;;;;5077076;28;20237;-78
2022/11/12 02:40:58;;;;;;;34.33;11.07;;;4.30;99.90;;;;;;5077736;28;20560;-76
2022/11/12 02:43:23;;;;;;;65.20;16.93;;;4.20;99.90;;;;;;5077782;28;20189;-76
2022/11/12 02:45:49;;;;;;;23.03;12.10;;;4.20;99.90;;;;;;5078058;28;20181;-77
2022/11/12 02:48:15;;;;;;;25.73;14.23;;;4.20;99.90;;;;;;5078361;28;20400;-77
2022/11/12 02:50:41;;;;;;;36.50;17.80;;;4.10;99.90;;;;;;5077115;28;20548;-78
2022/11/12 02:53:07;;;;;;;26.47;17.47;;;4.00;99.90;;;;;;5096300;28;20231;-76
2022/11/12 02:55:32;;;;;;;39.03;19.20;;;4.00;99.90;;;;;;5103131;28;20189;-76
2022/11/12 02:57:58;;;;;;;45.80;13.63;;;3.90;99.90;;;;;;5088547;28;20218;-77
2022/11/12 03:00:24;;;;;;;20.60;18.63;;;4.00;99.90;;;;;;5082786;28;20186;-77
2022/11/12 03:02:57;;;;;;;21.27;19.23;;;4.00;99.90;;;;;;5081886;28;20198;-76
2022/11/12 03:05:25;;;;;;;32.57;22.77;;;4.00;99.90;;;;;;5080133;28;20624;-76
2022/11/12 03:07:58;;;;;;;23.00;20.57;;;4.00;99.90;;;;;;5076059;28;20204;-77
2022/11/12 03:10:25;;;;;;;39.60;20.17;;;4.00;99.90;;;;;;5077436;28;20188;-77
2022/11/12 03:12:52;;;;;;;14.83;13.27;;;4.00;99.90;;;;;;5080332;28;20272;-76
2022/11/12 03:15:18;;;;;;;22.07;19.77;;;4.00;99.90;;;;;;5081836;28;20258;-77
2022/11/12 03:17:44;;;;;;;49.97;19.37;;;4.00;99.90;;;;;;5078489;28;20224;-76
2022/11/12 03:20:11;;;;;;;30.47;18.00;;;4.10;99.90;;;;;;5078078;28;20185;-77
2022/11/12 03:22:38;;;;;;;36.23;15.70;;;4.10;99.90;;;;;;5077503;28;20173;-76
2022/11/12 03:25:05;;;;;;;34.20;24.47;;;4.10;99.90;;;;;;5077517;28;20178;-77
2022/11/12 03:27:31;;;;;;;36.40;16.77;;;4.10;99.90;;;;;;5073106;28;20201;-76
2022/11/12 03:29:57;;;;;;;26.33;17.97;;;4.20;99.90;;;;;;5073280;28;20186;-77
2022/11/12 03:32:22;;;;;;;28.97;14.40;;;4.20;99.90;;;;;;5074556;28;20181;-77
2022/11/12 03:34:49;;;;;;;22.67;13.33;;;4.20;99.90;;;;;;5074114;28;20185;-77
2022/11/12 03:37:15;;;;;;;30.57;14.07;;;4.20;99.90;;;;;;5074128;28;20582;-77
2022/11/12 03:39:40;;;;;;;27.10;14.87;;;4.30;99.90;;;;;;5073951;28;20189;-77
2022/11/12 03:42:06;;;;;;;43.53;13.10;;;4.20;99.90;;;;;;5073643;28;20184;-76
2022/11/12 03:44:32;;;;;;;28.23;12.80;;;4.10;99.90;;;;;;5073741;28;20661;-76
2022/11/12 03:46:58;;;;;;;40.67;18.00;;;4.00;99.90;;;;;;5073240;28;20178;-76
2022/11/12 03:49:24;;;;;;;22.27;19.97;;;3.90;99.90;;;;;;5072659;28;20275;-77
2022/11/12 03:51:49;;;;;;;57.23;20.10;;;3.90;99.90;;;;;;5073830;28;20230;-76
2022/11/12 03:54:15;;;;;;;24.63;21.30;;;3.90;99.90;;;;;;5072549;28;20191;-77
2022/11/12 03:56:41;;;;;;;32.73;19.80;;;3.90;99.90;;;;;;5072617;28;20610;-77
2022/11/12 03:59:07;;;;;;;43.57;20.07;;;3.90;99.90;;;;;;5073050;28;20226;-77
2022/11/12 04:01:32;;;;;;;20.80;18.80;;;3.90;99.90;;;;;;5075207;28;20173;-77
2022/11/12 04:03:58;;;;;;;18.33;16.67;;;3.90;99.90;;;;;;5078090;28;20260;-77
2022/11/12 04:09:08;;;;;;;30.40;19.80;;;4.00;99.90;;;;;;5073334;28;20208;-76
2022/11/12 04:11:34;;;;;;;41.57;19.20;;;4.10;99.90;;;;;;5073732;28;20244;-77
2022/11/12 04:14:00;;;;;;;21.43;19.53;;;4.10;99.90;;;;;;5072288;28;20185;-76
2022/11/12 04:22:09;;;;;;;21.07;13.27;;;4.20;99.90;;;;;;5073639;28;20181;-76
2022/11/12 04:27:33;;;;;;;17.73;16.30;;;4.20;99.90;;;;;;5073101;28;20295;-77
2022/11/12 04:30:14;;;;;;;19.40;17.63;;;4.20;99.90;;;;;;5072088;28;20185;-77
2022/11/12 04:32:47;;;;;;;26.40;24.40;;;4.30;99.90;;;;;;5072505;28;20669;-77
2022/11/12 04:35:13;;;;;;;24.30;22.40;;;4.30;99.90;;;;;;5073118;28;20268;-76
2022/11/12 04:37:45;;;;;;;24.83;23.00;;;4.30;99.90;;;;;;5071000;28;20297;-77
2022/11/12 04:45:49;;;;;;;12.07;11.17;;;4.20;99.90;;;;;;5076415;28;20661;-77
2022/11/12 04:48:15;;;;;;;15.20;14.00;;;4.20;99.90;;;;;;5072219;28;20200;-77
2022/11/12 04:50:42;;;;;;;12.37;11.27;;;4.10;99.90;;;;;;5080010;28;20181;-77
2022/11/12 04:53:08;;;;;;;11.83;10.77;;;4.10;99.90;;;;;;5081512;28;20624;-76
2022/11/12 04:55:34;;;;;;;15.30;14.20;;;4.00;99.90;;;;;;5073474;28;20227;-77
2022/11/12 04:57:59;;;;;;;11.87;10.67;;;4.00;99.90;;;;;;5072136;28;20205;-77
2022/11/12 05:00:26;;;;;;;10.17;9.47;;;3.90;99.90;;;;;;5072186;28;20178;-77
2022/11/12 05:02:51;;;;;;;12.83;11.83;;;3.90;99.90;;;;;;5072891;28;20203;-76
2022/11/12 05:05:17;;;;;;;16.60;15.40;;;4.00;99.90;;;;;;5072197;28;20619;-77
2022/11/12 05:07:43;;;;;;;13.13;12.13;;;4.00;99.90;;;;;;5071281;28;20204;-77
2022/11/12 05:10:09;;;;;;;12.03;11.07;;;4.00;99.90;;;;;;5072184;28;20184;-77
2022/11/12 05:12:35;;;;;;;13.17;12.07;;;4.00;99.90;;;;;;5072735;28;20645;-77
2022/11/12 05:15:02;;;;;;;12.90;11.87;;;4.00;99.90;;;;;;5071760;28;20185;-77
2022/11/12 05:17:28;;;;;;;13.93;12.63;;;3.90;99.90;;;;;;5071000;28;20221;-77
2022/11/12 05:19:53;;;;;;;15.57;14.37;;;3.90;99.90;;;;;;5075662;28;20204;-77
2022/11/12 05:22:19;;;;;;;12.50;11.57;;;3.80;99.90;;;;;;5080647;28;20185;-77
2022/11/12 05:24:45;;;;;;;12.90;12.00;;;3.80;99.90;;;;;;5073202;28;20178;-77
2022/11/12 05:27:14;;;;;;;13.53;12.33;;;3.80;99.90;;;;;;5077658;28;20185;-77
2022/11/12 05:29:41;;;;;;;12.80;11.80;;;3.70;99.90;;;;;;5072352;28;20578;-77
2022/11/12 05:32:08;;;;;;;13.23;11.93;;;3.70;99.90;;;;;;5072873;28;20268;-77
2022/11/12 05:34:34;;;;;;;12.73;11.57;;;3.70;99.90;;;;;;5071503;28;20189;-76
2022/11/12 05:37:02;;;;;;;15.47;14.17;;;3.70;99.90;;;;;;5070830;28;20208;-77
2022/11/12 05:39:28;;;;;;;13.60;12.50;;;3.60;99.90;;;;;;5071712;28;20188;-77
2022/11/12 05:41:53;;;;;;;17.20;15.90;;;3.60;99.90;;;;;;5071102;28;20188;-77
2022/11/12 05:44:20;;;;;;;14.50;13.20;;;3.60;99.90;;;;;;5072229;28;20226;-76
2022/11/12 05:46:46;;;;;;;12.80;11.70;;;3.60;99.90;;;;;;5069937;28;20677;-77
2022/11/12 05:49:12;;;;;;;12.47;11.50;;;3.60;99.90;;;;;;5070721;28;20199;-77
2022/11/12 05:51:38;;;;;;;11.13;10.17;;;3.60;99.90;;;;;;5078994;28;20196;-76
2022/11/12 05:54:04;;;;;;;11.47;10.37;;;3.60;99.90;;;;;;5097066;28;20191;-75
2022/11/12 05:56:30;;;;;;;10.97;10.00;;;3.50;99.90;;;;;;5090061;28;20205;-77
2022/11/12 05:58:56;;;;;;;19.40;18.00;;;3.50;99.90;;;;;;5068649;28;20870;-78
2022/11/12 06:01:22;;;;;;;18.60;17.20;;;3.50;99.90;;;;;;5089182;28;20298;-78
2022/11/12 06:03:48;;;;;;;14.47;13.37;;;3.50;99.90;;;;;;5074544;28;20216;-78
2022/11/12 06:06:13;;;;;;;14.60;13.40;;;3.40;99.90;;;;;;5073057;28;20266;-76
2022/11/12 06:08:39;;;;;;;18.47;17.07;;;3.50;99.90;;;;;;5072967;28;20689;-79
2022/11/12 06:11:05;;;;;;;20.10;18.37;;;3.40;99.90;;;;;;5071606;28;20177;-78
2022/11/12 06:13:31;;;;;;;18.73;17.23;;;3.50;99.90;;;;;;5072693;28;20190;-79
2022/11/12 06:15:57;;;;;;;21.80;20.20;;;3.50;99.90;;;;;;5074950;28;20578;-77
2022/11/12 06:18:23;;;;;;;17.63;16.07;;;3.50;99.90;;;;;;5073364;28;20250;-78
2022/11/12 06:21:18;;;;;;;16.00;14.90;;;3.40;99.90;;;;;;5073762;28;20176;-78
2022/11/12 06:23:35;;;;;;;13.13;11.27;;;3.40;99.90;;;;;;5082128;28;20184;-77
2022/11/12 06:26:01;;;;;;;18.10;16.43;;;3.40;99.90;;;;;;5084500;28;20638;-78
2022/11/12 06:28:28;;;;;;;22.57;20.13;;;3.30;99.90;;;;;;5073192;28;20209;-78
2022/11/12 06:30:53;;;;;;;23.93;21.63;;;3.30;99.90;;;;;;5073348;28;20185;-79
2022/11/12 06:33:20;;;;;;;19.13;17.30;;;3.30;99.90;;;;;;5069210;28;20207;-78
2022/11/12 06:35:45;;;;;;;17.77;14.97;;;3.20;99.90;;;;;;5056171;28;20182;-78
2022/11/12 06:38:12;;;;;;;16.93;15.43;;;3.30;99.90;;;;;;5071195;28;20215;-77
2022/11/12 06:40:37;;;;;;;19.37;17.63;;;3.30;99.90;;;;;;5073364;28;20193;-74
2022/11/12 06:43:03;;;;;;;25.57;23.57;;;3.30;99.90;;;;;;5070070;28;20189;-72
2022/11/12 06:45:29;;;;;;;23.17;21.17;;;3.40;99.90;;;;;;5069772;28;20172;-72
2022/11/12 06:47:58;;;;;;;25.57;23.60;;;3.40;99.90;;;;;;5069641;28;20205;-71
2022/11/12 06:50:24;;;;;;;25.00;23.27;;;3.50;99.90;;;;;;5070141;28;20181;-73
2022/11/12 06:52:50;;;;;;;25.90;24.00;;;3.50;99.90;;;;;;5069108;28;20264;-71
2022/11/12 06:55:15;;;;;;;22.90;20.97;;;3.50;99.90;;;;;;5069440;28;20266;-73
2022/11/12 06:57:41;;;;;;;13.27;12.03;;;3.50;99.90;;;;;;5070849;28;20223;-73
2022/11/12 07:00:10;;;;;;;13.47;12.07;;;3.60;99.90;;;;;;5073759;28;20231;-73
2022/11/12 07:02:36;;;;;;;12.97;11.80;;;3.60;99.90;;;;;;5072575;28;20182;-74
2022/11/12 07:05:02;;;;;;;14.17;12.97;;;3.70;99.90;;;;;;5072419;28;20177;-75
2022/11/12 07:07:28;;;;;;;13.47;12.20;;;3.70;99.90;;;;;;5072942;28;20299;-75
2022/11/12 07:09:53;;;;;;;13.73;12.47;;;3.70;99.90;;;;;;5073515;28;20185;-74
2022/11/12 07:12:19;;;;;;;14.27;12.77;;;3.80;99.90;;;;;;5072727;28;20729;-74
2022/11/12 07:14:45;;;;;;;15.67;12.17;;;3.90;99.90;;;;;;5073682;28;20188;-75
2022/11/12 07:17:11;;;;;;;15.43;14.13;;;4.00;99.90;;;;;;5073126;28;20241;-74
2022/11/12 07:19:37;;;;;;;21.10;19.10;;;4.10;99.90;;;;;;5072374;28;20268;-73
2022/11/12 07:22:02;;;;;;;15.67;14.27;;;4.20;99.90;;;;;;5073775;28;20181;-73
2022/11/12 07:24:28;;;;;;;17.10;15.70;;;4.40;99.90;;;;;;5073098;28;20173;-74
2022/11/12 07:26:54;;;;;;;19.03;16.17;;;4.60;99.90;;;;;;5073216;28;20188;-74
2022/11/12 07:29:20;;;;;;;15.33;13.83;;;4.80;99.90;;;;;;5073405;28;20215;-73
2022/11/12 07:31:46;;;;;;;13.80;12.60;;;5.10;99.90;;;;;;5073472;28;20735;-72
2022/11/12 07:34:12;;;;;;;14.27;13.07;;;5.30;99.90;;;;;;5072425;28;20267;-73
2022/11/12 07:36:37;;;;;;;15.80;14.40;;;5.60;99.90;;;;;;5073102;28;20205;-72
2022/11/12 07:39:03;;;;;;;18.93;17.47;;;5.80;99.90;;;;;;5072644;28;20235;-73
2022/11/12 07:41:29;;;;;;;17.67;15.53;;;6.00;99.90;;;;;;5073388;28;20196;-73
2022/11/12 07:43:54;;;;;;;17.87;16.50;;;6.20;99.90;;;;;;5072154;28;20196;-73
2022/11/12 07:46:25;;;;;;;23.67;21.90;;;6.40;99.90;;;;;;5071791;28;20613;-74
2022/11/12 07:48:52;;;;;;;26.53;24.40;;;6.60;99.90;;;;;;5070662;28;20205;-74
2022/11/12 07:51:24;;;;;;;17.63;15.97;;;6.70;99.90;;;;;;5071333;28;20272;-74
2022/11/12 07:53:52;;;;;;;17.07;15.57;;;6.80;99.90;;;;;;5071856;28;20273;-73
2022/11/12 07:56:21;;;;;;;15.77;14.37;;;6.80;99.90;;;;;;5073365;28;20232;-73
2022/11/12 07:58:49;;;;;;;15.63;14.20;;;6.90;99.90;;;;;;5071532;28;20231;-74
2022/11/12 08:01:15;;;;;;;15.40;13.97;;;7.10;99.90;;;;;;5073263;28;20184;-73
2022/11/12 08:03:40;;;;;;;15.20;13.90;;;7.30;99.90;;;;;;5073189;28;20178;-75
2022/11/12 08:06:06;;;;;;;15.03;13.73;;;7.60;99.90;;;;;;5071670;28;20231;-74
2022/11/12 08:08:32;;;;;;;14.37;13.07;;;7.80;99.90;;;;;;5072163;28;20228;-74
2022/11/12 08:10:58;;;;;;;15.17;13.97;;;8.00;99.90;;;;;;5073397;28;20177;-74
2022/11/12 08:13:24;;;;;;;10.63;9.47;;;8.00;99.90;;;;;;5074169;28;20181;-75
2022/11/12 08:15:51;;;;;;;18.37;17.07;;;7.90;99.90;;;;;;5072764;28;20650;-74
2022/11/12 08:18:17;;;;;;;18.10;16.53;;;7.60;99.90;;;;;;5072689;28;20308;-73
2022/11/12 08:20:43;;;;;;;13.87;12.73;;;7.50;99.90;;;;;;5071675;28;20174;-73
2022/11/12 08:23:08;;;;;;;16.67;15.27;;;7.40;99.90;;;;;;5072839;28;20185;-75
2022/11/12 08:25:35;;;;;;;13.07;11.77;;;7.30;99.90;;;;;;5072584;28;20216;-73
2022/11/12 08:28:01;;;;;;;14.30;12.87;;;7.50;99.90;;;;;;5072311;28;20208;-74
2022/11/12 08:30:28;;;;;;;17.60;16.00;;;7.60;99.90;;;;;;5072919;28;20170;-75
2022/11/12 08:32:56;;;;;;;13.33;12.07;;;7.80;99.90;;;;;;5072861;28;20261;-75
2022/11/12 08:35:22;;;;;;;14.00;12.67;;;7.90;99.90;;;;;;5071708;28;20169;-74
2022/11/12 08:37:47;;;;;;;12.33;11.10;;;8.00;99.90;;;;;;5072054;28;20232;-75
2022/11/12 08:40:13;;;;;;;12.17;11.17;;;8.00;99.90;;;;;;5071422;28;20551;-75
2022/11/12 08:42:39;;;;;;;13.47;12.27;;;8.00;99.90;;;;;;5057047;28;20650;-74
2022/11/12 08:45:05;;;;;;;15.47;14.10;;;8.10;99.90;;;;;;5055783;28;20221;-74
2022/11/12 08:47:31;;;;;;;14.90;13.50;;;8.20;99.90;;;;;;5071095;28;20211;-73
2022/11/12 08:49:56;;;;;;;13.77;12.47;;;8.50;99.90;;;;;;5071509;28;20639;-73
2022/11/12 08:52:22;;;;;;;14.50;13.30;;;8.80;99.90;;;;;;5072097;28;20191;-74
2022/11/12 08:54:48;;;;;;;14.23;13.03;;;9.00;99.90;;;;;;5071775;28;20177;-74
2022/11/12 08:57:15;;;;;;;25.07;23.37;;;9.30;99.90;;;;;;5071538;28;20205;-75
2022/11/12 08:59:40;;;;;;;23.43;21.67;;;9.50;99.90;;;;;;5071090;28;20166;-73
2022/11/12 09:02:12;;;;;;;19.63;18.27;;;9.60;99.90;;;;;;5070936;28;20681;-73
2022/11/12 09:04:38;;;;;;;19.43;17.63;;;9.70;99.90;;;;;;5070646;28;20411;-72
2022/11/12 09:07:04;;;;;;;13.50;12.33;;;9.80;99.90;;;;;;5070447;28;20260;-72
2022/11/12 09:09:30;;;;;;;12.57;11.03;;;9.90;99.90;;;;;;5070213;28;20681;-72
2022/11/12 09:11:55;;;;;;;14.73;13.30;;;9.90;99.90;;;;;;5070946;28;20185;-72
2022/11/12 09:14:21;;;;;;;13.77;12.67;;;9.90;99.90;;;;;;5071500;28;20334;-74
2022/11/12 09:16:47;;;;;;;14.03;12.93;;;9.80;99.90;;;;;;5070589;28;20202;-74
2022/11/12 09:19:13;;;;;;;16.50;14.90;;;9.70;99.90;;;;;;5071221;28;20194;-72
2022/11/12 09:21:38;;;;;;;14.87;13.50;;;9.90;99.90;;;;;;5064995;28;20186;-72
2022/11/12 09:24:04;;;;;;;13.27;12.17;;;10.30;99.90;;;;;;5052054;28;20197;-72
2022/11/12 09:26:30;;;;;;;14.30;13.10;;;10.80;99.90;;;;;;5069945;28;20189;-72
2022/11/12 09:28:56;;;;;;;16.57;15.43;;;11.30;99.90;;;;;;5070715;28;20210;-72
2022/11/12 09:31:24;;;;;;;16.93;15.37;;;11.80;99.90;;;;;;5069906;28;20189;-74
2022/11/12 09:33:50;;;;;;;11.50;10.53;;;11.90;99.90;;;;;;5070162;28;20576;-73
2022/11/12 09:36:16;;;;;;;11.67;10.57;;;12.00;99.90;;;;;;5072577;28;20213;-74
2022/11/12 09:38:42;;;;;;;11.00;10.03;;;12.00;99.90;;;;;;5072548;28;20219;-74
2022/11/12 09:41:17;;;;;;;11.23;9.47;;;12.20;99.90;;;;;;5071365;28;20173;-75
2022/11/12 09:43:58;;;;;;;10.47;9.57;;;12.10;99.90;;;;;;5069591;28;20214;-74
2022/11/12 09:46:35;;;;;;;10.20;9.20;;;12.00;99.90;;;;;;5070545;28;20185;-75
2022/11/12 09:49:11;;;;;;;9.70;8.70;;;12.00;99.90;;;;;;5069339;28;20204;-74
2022/11/12 09:51:52;;;;;;;15.60;10.97;;;11.90;99.90;;;;;;5070667;28;20188;-75
2022/11/12 09:54:22;;;;;;;9.93;9.13;;;11.70;99.90;;;;;;5070702;28;20277;-76
2022/11/12 09:56:51;;;;;;;10.80;9.47;;;11.60;99.90;;;;;;5054838;28;20205;-76
2022/11/12 09:59:17;;;;;;;10.00;9.00;;;11.90;99.90;;;;;;5064698;28;20281;-75
2022/11/12 10:01:58;;;;;;;11.23;9.90;;;12.20;99.90;;;;;;5068231;28;20718;-75
2022/11/12 10:04:39;;;;;;;9.67;8.87;;;12.40;99.90;;;;;;5068883;28;20646;-76
2022/11/12 10:07:50;;;;;;;9.30;8.40;;;12.50;99.90;;;;;;5048640;28;20320;-75
2022/11/12 10:10:29;;;;;;;10.03;9.23;;;12.90;99.90;;;;;;5041138;28;20729;-75
2022/11/12 10:13:04;;;;;;;11.00;10.00;;;13.00;99.90;;;;;;5048508;28;20186;-76
2022/11/12 10:18:33;;;;;;;17.40;15.90;;;13.60;99.90;;;;;;5070337;28;20205;-75
2022/11/12 10:21:08;;;;;;;13.77;12.63;;;13.90;99.90;;;;;;5070776;28;20182;-75
2022/11/12 10:23:44;;;;;;;11.63;10.70;;;14.20;99.90;;;;;;5070613;28;20213;-75
2022/11/12 10:26:13;;;;;;;9.83;9.03;;;14.60;99.90;;;;;;5069254;28;20189;-75
2022/11/12 10:28:51;;;;;;;9.80;8.30;;;14.90;99.90;;;;;;5070862;28;20224;-76
2022/11/12 10:31:20;;;;;;;9.63;8.73;;;14.90;99.90;;;;;;5071543;28;20260;-76
2022/11/12 10:33:46;;;;;;;12.20;11.20;;;15.10;99.90;;;;;;5074540;28;20268;-75
2022/11/12 10:36:33;;;;;;;14.97;13.87;;;15.30;99.90;;;;;;5074232;28;20201;-76
2022/11/12 10:38:59;;;;;;;14.17;13.20;;;15.30;99.90;;;;;;5052857;28;20300;-75
2022/11/12 10:41:30;;;;;;;12.00;11.20;;;15.10;99.90;;;;;;5054573;28;20615;-75
2022/11/12 10:44:01;;;;;;;20.43;19.17;;;15.60;99.90;;;;;;5054581;28;20274;-76
2022/11/12 10:46:26;;;;;;;32.13;30.23;;;16.00;99.90;;;;;;5068599;28;20239;-75
2022/11/12 10:49:19;;;;;;;31.57;29.80;;;16.60;99.90;;;;;;5073621;28;20209;-75
2022/11/12 10:51:56;;;;;;;27.30;25.70;;;17.00;99.90;;;;;;5074487;28;20193;-75
2022/11/12 10:54:36;;;;;;;26.70;24.97;;;17.20;99.90;;;;;;5074349;28;20185;-76
2022/11/12 10:57:25;;;;;;;21.37;19.67;;;17.60;99.90;;;;;;5073747;28;20205;-75
2022/11/12 11:00:16;;;;;;;22.67;21.07;;;17.70;99.90;;;;;;5074240;28;20754;-75
2022/11/12 11:02:51;;;;;;;25.97;24.47;;;17.30;99.90;;;;;;5073081;28;20184;-75
2022/11/12 11:05:36;;;;;;;30.90;29.07;;;17.60;99.90;;;;;;5073735;28;20181;-75
2022/11/12 11:08:04;;;;;;;23.50;22.20;;;17.40;99.90;;;;;;5073184;28;20206;-75
2022/11/12 11:10:33;;;;;;;20.07;18.73;;;17.50;99.90;;;;;;5073982;28;20551;-75
2022/11/12 11:13:19;;;;;;;14.57;13.67;;;18.50;99.90;;;;;;5073889;28;20550;-75
2022/11/12 11:16:01;;;;;;;10.37;9.67;;;19.40;99.90;;;;;;5073522;28;20185;-75
2022/11/12 11:18:29;;;;;;;8.23;7.53;;;19.70;99.90;;;;;;5073301;28;20197;-75
2022/11/12 11:21:19;;;;;;;8.20;7.60;;;20.50;99.90;;;;;;5072670;28;20176;-75
2022/11/12 11:23:52;;;;;;;8.63;7.93;;;20.70;99.90;;;;;;5073987;28;20209;-75
2022/11/12 11:26:31;;;;;;;8.33;7.70;;;20.50;99.90;;;;;;5106148;28;20188;-75
2022/11/12 11:29:16;;;;;;;8.43;7.63;;;20.20;99.90;;;;;;5071996;28;20229;-75
2022/11/12 11:32:10;;;;;;;8.50;7.70;;;20.20;99.90;;;;;;5073641;28;20182;-75
2022/11/12 11:35:04;;;;;;;8.73;8.13;;;19.90;99.90;;;;;;5073574;28;20325;-75
2022/11/12 11:37:37;;;;;;;8.57;7.87;;;19.60;99.90;;;;;;5053063;28;20831;-75
2022/11/12 11:40:26;;;;;;;9.70;8.80;;;19.80;99.90;;;;;;5093090;22;20279;-79
2022/11/12 11:42:52;;;;;;;10.60;9.80;;;19.60;99.90;;;;;;5076041;28;20224;-79
2022/11/12 11:45:47;;;;;;;10.57;9.80;;;19.30;99.90;;;;;;5076252;28;20185;-79
2022/11/12 11:48:28;;;;;;;9.40;8.60;;;19.40;99.90;;;;;;5054009;28;20247;-79
2022/11/12 11:51:33;;;;;;;8.90;8.20;;;20.00;99.90;;;;;;5077209;28;20178;-79
2022/11/12 11:54:36;;;;;;;8.37;7.77;;;19.80;99.90;;;;;;5076429;28;20744;-79
2022/11/12 11:57:29;;;;;;;8.67;8.03;;;19.90;99.90;;;;;;5056352;28;20242;-78
2022/11/12 12:00:11;;;;;;;9.47;8.77;;;19.40;99.90;;;;;;5048036;28;20690;-78
2022/11/12 12:03:07;;;;;;;9.47;8.70;;;19.40;99.90;;;;;;5056285;28;20178;-79
2022/11/12 12:06:08;;;;;;;8.37;7.70;;;19.30;99.90;;;;;;5061575;28;20666;-78
2022/11/12 12:08:46;;;;;;;9.83;9.00;;;19.70;99.90;;;;;;5073768;28;20204;-78
2022/11/12 12:11:57;;;;;;;8.30;7.73;;;19.40;99.90;;;;;;5083527;28;20200;-78
2022/11/12 12:14:23;;;;;;;9.80;9.10;;;19.20;99.90;;;;;;5051326;28;20746;-78
2022/11/12 12:17:00;;;;;;;7.70;7.20;;;19.10;99.90;;;;;;5058726;28;20178;-78
2022/11/12 12:19:37;;;;;;;9.80;9.10;;;18.80;99.90;;;;;;5055084;28;20206;-77
2022/11/12 12:22:12;;;;;;;13.57;12.10;;;18.30;99.90;;;;;;5054167;28;20217;-78
2022/11/12 12:24:37;;;;;;;12.67;11.57;;;17.90;99.90;;;;;;5054978;28;20189;-79
2022/11/12 12:27:24;;;;;;;12.33;10.70;;;18.00;99.90;;;;;;5071800;28;20198;-78
2022/11/12 12:30:13;;;;;;;10.47;9.57;;;18.10;99.90;;;;;;5075392;28;20224;-78
2022/11/12 12:32:45;;;;;;;10.97;10.17;;;18.20;99.90;;;;;;5076735;28;20188;-78
2022/11/12 12:35:26;;;;;;;12.23;11.33;;;18.10;99.90;;;;;;5075206;28;20559;-79
2022/11/12 12:38:04;;;;;;;12.03;10.97;;;18.20;99.90;;;;;;5055219;28;20269;-78
2022/11/12 12:40:34;;;;;;;12.07;11.17;;;18.50;99.90;;;;;;5054132;28;20277;-79
2022/11/12 12:43:16;;;;;;;10.13;9.43;;;18.60;99.90;;;;;;5055088;28;20206;-76
2022/11/12 12:45:44;;;;;;;10.93;10.23;;;19.20;99.90;;;;;;5061062;28;20251;-76
2022/11/12 12:48:16;;;;;;;13.60;12.57;;;19.40;99.90;;;;;;5073648;28;20201;-76
2022/11/12 12:50:44;;;;;;;12.20;11.30;;;19.40;99.90;;;;;;5074143;28;20178;-76
2022/11/12 12:53:30;;;;;;;11.00;10.30;;;19.20;99.90;;;;;;5074710;28;20185;-76
2022/11/12 12:56:26;;;;;;;11.83;11.03;;;19.40;99.90;;;;;;5063834;28;20198;-77
2022/11/12 12:58:54;;;;;;;11.67;10.60;;;19.30;99.90;;;;;;5047497;28;20218;-76
2022/11/12 13:01:19;;;;;;;10.57;9.67;;;19.20;99.90;;;;;;5054013;28;20190;-77
2022/11/12 13:03:57;;;;;;;11.67;10.60;;;20.10;99.90;;;;;;5054883;28;20182;-77
2022/11/12 13:06:26;;;;;;;14.47;13.37;;;20.20;99.90;;;;;;5062287;28;20202;-76
2022/11/12 13:08:54;;;;;;;12.10;11.27;;;19.80;99.90;;;;;;5087150;28;20220;-76